Murtala Muhammed International Airport

Jump to: basic info | weather | frequencies | runways | comments

Related pages: nearby airports | nearby navaids | notams | map

Basic information (top)

Codes: LOS DNMM
Location: lon 6.577370, lat 3.321160, elev 135 ft / 41 m msl
Status: large_airport
Scheduled airline service: yes
Links: Wikipedia Mobile

Weather (top)

Current conditions (rec'd 2015/05/06 12:00Z):

DNMM 061200Z 26004KT 9999 SCT013 31/25 Q1012 NOSIG

Airport forecast (rec'd 2015/05/06 12:21Z):

TAF DNMM 060940Z 0612/0718 25010KT 9999 BKN014 PROB30 
      TEMPO 0615/0617 FEW019CB 
      BECMG 0618/0620 19005KT SCT010 
     FM062300 00000KT 7000 FEW008

Frequencies (top)

Verify before use: may be inaccurate or out of date.

AFIS: 120.9 MHz (LAGOS WEST)
AFIS: 127.3 MHz (LAGOS EAST)
APP: 124.3 MHz (APP)

Runways (top)

18L/36R: 8,997 x 148 ft (2,742 x 45 m) — paved — lighted

18R/36L: 12,794 x 197 ft (3,900 x 60 m) — paved — lighted

Latest comments (top)

B T A money: How much bta money to travel to new ... [read]

cant on plane: Its man in your country said he had ... [read]

Ebola: I have a friend trying to fly from ... [read]

Mr. John Dawson: Flight # Kl 0592/flight booking code: ... [read]

Flights: 8/13/2014 through 8/15/2014 Does ... [read]

See all 18 comments for Murtala Muhammed International Airport

More... (top)

See also NOTAMs and nearby airports and navaids, or visit the Murtala Muhammed International Airport page at the main OurAirports website..